Terminal Aerodrome Forecast
Issued by NWS

Current Version | Previous Version | Graphics & Text | Print | Product List | Glossary On
Versions: 1 2 3 4 5 6 7 8 9 10 11 12 13 14 15 16 17
000
FTUS41 KILN 210841 AAA
TAFLUK
TAF AMD
KLUK 210841Z 2109/2206 01004KT 2SM BR OVC015
     FM211100 36006KT 2SM BR OVC009
     FM211400 02007KT P6SM OVC015
     FM211600 03006KT P6SM BKN025
     FM211800 02005KT P6SM BKN200=

USA.gov is the U.S. government's official web portal to all federal, state and local government web resources and services.